四国METAR電文


高松(RJOT)
07/19 18:00
METAR RJOT 190900Z 11006KT 080V140 9999 FEW030 BKN/// 30/27 Q1009
RMK 1CU030 A2980=

松山(RJOM)
07/19 18:00
METAR RJOM 190900Z 32007KT 9999 FEW035 SCT/// 29/26 Q1008 RMK 1CU035
A2977=

徳島(RJOS)
07/19 18:00
METAR RJOS 190900Z VRB02KT 9999 FEW008 SCT100 BKN/// 28/26 Q1009 RMK
1ST008 3AC100 A2981=

小松島(RJOP)
07/19 18:00
METAR RJOP 190900Z 03003KT 350V050 9999 FEW030 BKN/// 29/25 Q1009
RMK 1CU030 A2981=

高知(RJOK)
07/19 18:00
METAR RJOK 190900Z 12007KT 9999 VCSH FEW010 SCT015 30/27 Q1010 RMK
2ST010 4CU015 A2983=
Copyright(c) 2014 International Meteorological & Oceanographic Consultants Co,.Ltd. All Rights Reserved. Design by http://f-tpl.com